Time;durP1;ratioP1;P1;durP2;ratioP2;P2;SDS_P1;SDS_P2;PMS_P1;PMS_P2;Temp;Humidity;BMP_temperature;BMP_pressure;BME280_temperature;BME280_humidity;BME280_pressure;Samples;Min_cycle;Max_cycle;Signal;HPM_P1;HPM_P2
2021/06/02 00:02:18;;;;;;;;;;;26.30;96.00;;;;;;5127784;28;19908;-52
2021/06/02 00:04:45;;;;;;;;;;;26.30;96.00;;;;;;5127742;28;19957;-51
2021/06/02 00:07:14;;;;;;;;;;;26.30;95.90;;;;;;5128090;28;20209;-44
2021/06/02 00:09:40;;;;;;;;;;;26.30;95.90;;;;;;5127587;28;19904;-44
2021/06/02 00:12:08;;;;;;;;;;;26.30;96.00;;;;;;5127661;28;19953;-48
2021/06/02 00:14:35;;;;;;;;;;;26.30;96.00;;;;;;5127621;28;20141;-49
2021/06/02 00:17:01;;;;;;;;;;;26.30;96.00;;;;;;5126175;28;20006;-52
2021/06/02 00:19:28;;;;;;;;;;;26.30;96.20;;;;;;5127011;28;19912;-52
2021/06/02 00:21:56;;;;;;;;;;;26.30;96.00;;;;;;5127442;28;19915;-44
2021/06/02 00:24:22;;;;;;;;;;;26.30;96.00;;;;;;5128035;28;19912;-43
2021/06/02 00:26:51;;;;;;;;;;;26.30;96.00;;;;;;5127479;28;19947;-46
2021/06/02 00:29:17;;;;;;;;;;;26.20;96.00;;;;;;5128139;27;19916;-49
2021/06/02 00:31:44;;;;;;;;;;;26.20;96.00;;;;;;5127054;28;19957;-51
2021/06/02 00:34:10;;;;;;;;;;;26.20;96.00;;;;;;5127723;28;20196;-44
2021/06/02 00:36:40;;;;;;;;;;;26.20;96.00;;;;;;5127446;28;19904;-58
2021/06/02 00:39:07;;;;;;;;;;;26.20;96.10;;;;;;5127325;28;19956;-54
2021/06/02 00:41:34;;;;;;;;;;;26.20;96.10;;;;;;5127026;28;19963;-50
2021/06/02 00:44:01;;;;;;;;;;;26.20;96.00;;;;;;5127624;28;19919;-51
2021/06/02 00:46:28;;;;;;;;;;;26.20;96.00;;;;;;5125916;28;19952;-40
2021/06/02 00:48:54;;;;;;;;;;;26.20;96.00;;;;;;5127323;28;19911;-45
2021/06/02 00:51:20;;;;;;;;;;;26.20;96.00;;;;;;5131375;27;19912;-49
2021/06/02 00:53:46;;;;;;;;;;;26.20;95.90;;;;;;5147436;27;19915;-41
2021/06/02 00:56:13;;;;;;;;;;;26.20;95.80;;;;;;5128947;27;19908;-48
2021/06/02 00:58:49;;;;;;;;;;;26.20;95.80;;;;;;5127090;28;19911;-50
2021/06/02 01:01:15;;;;;;;;;;;26.20;95.90;;;;;;5140177;27;19914;-45
2021/06/02 01:03:44;;;;;;;;;;;26.10;95.90;;;;;;5147671;27;20073;-43
2021/06/02 01:06:10;;;;;;;;;;;26.20;95.90;;;;;;5147420;27;19904;-41
2021/06/02 01:08:37;;;;;;;;;;;26.10;95.90;;;;;;5147662;27;19919;-42
2021/06/02 01:11:04;;;;;;;;;;;26.10;95.90;;;;;;5147430;27;19903;-41
2021/06/02 01:13:34;;;;;;;;;;;26.10;95.90;;;;;;5147824;27;19911;-49
2021/06/02 01:16:00;;;;;;;;;;;26.10;95.90;;;;;;5147015;27;19912;-40
2021/06/02 01:18:26;;;;;;;;;;;26.10;95.90;;;;;;5147209;27;20184;-45
2021/06/02 01:20:55;;;;;;;;;;;26.10;95.90;;;;;;5146475;27;19904;-49
2021/06/02 01:23:21;;;;;;;;;;;26.10;95.90;;;;;;5147290;27;20091;-42
2021/06/02 01:25:47;;;;;;;;;;;26.00;95.90;;;;;;5139272;27;19907;-50
2021/06/02 01:28:14;;;;;;;;;;;26.00;95.90;;;;;;5115096;28;19913;-51
2021/06/02 01:30:40;;;;;;;;;;;26.00;95.90;;;;;;5119127;27;19927;-40
2021/06/02 01:33:12;;;;;;;;;;;26.00;95.90;;;;;;5124810;27;19912;-42
2021/06/02 01:35:58;;;;;;;;;;;26.00;95.90;;;;;;5135017;27;19903;-50
2021/06/02 01:38:30;;;;;;;;;;;26.00;96.00;;;;;;5147006;27;19927;-42
2021/06/02 01:41:08;;;;;;;;;;;26.00;96.00;;;;;;5134500;27;19910;-41
2021/06/02 01:43:37;;;;;;;;;;;26.00;96.00;;;;;;5126187;28;19912;-48
2021/06/02 01:46:09;;;;;;;;;;;26.00;96.00;;;;;;5125761;28;19919;-43
2021/06/02 01:48:44;;;;;;;;;;;26.00;96.00;;;;;;5126226;28;19975;-51
2021/06/02 01:51:28;;;;;;;;;;;26.00;96.00;;;;;;5127314;27;19968;-41
2021/06/02 01:54:10;;;;;;;;;;;26.00;96.00;;;;;;5126270;28;19947;-46
2021/06/02 01:56:54;;;;;;;;;;;26.00;96.00;;;;;;5116643;28;19915;-41
2021/06/02 01:59:30;;;;;;;;;;;26.00;96.00;;;;;;5113300;28;20180;-50
2021/06/02 02:02:14;;;;;;;;;;;25.90;96.00;;;;;;5094568;28;19914;-42
2021/06/02 02:04:43;;;;;;;;;;;26.00;96.00;;;;;;5112273;28;19916;-43
2021/06/02 02:07:12;;;;;;;;;;;25.90;96.00;;;;;;5118461;28;19910;-52
2021/06/02 02:09:57;;;;;;;;;;;25.90;95.90;;;;;;5125386;28;19908;-52
2021/06/02 02:12:32;;;;;;;;;;;25.90;95.90;;;;;;5105413;28;19919;-45
2021/06/02 02:15:12;;;;;;;;;;;25.90;95.80;;;;;;5113542;28;19939;-43
2021/06/02 02:17:41;;;;;;;;;;;25.90;95.80;;;;;;5095613;28;20081;-44
2021/06/02 02:20:17;;;;;;;;;;;25.90;95.80;;;;;;5113458;28;19904;-46
2021/06/02 02:23:01;;;;;;;;;;;25.90;95.80;;;;;;5113968;28;19916;-42
2021/06/02 02:25:39;;;;;;;;;;;25.90;95.70;;;;;;5110845;28;19907;-44
2021/06/02 02:28:15;;;;;;;;;;;25.90;95.60;;;;;;5117108;28;19953;-43
2021/06/02 02:30:52;;;;;;;;;;;25.90;95.40;;;;;;5115991;28;20104;-51
2021/06/02 02:33:36;;;;;;;;;;;25.90;95.40;;;;;;5105647;28;19912;-46
2021/06/02 02:36:08;;;;;;;;;;;25.90;95.20;;;;;;5104482;28;20197;-44
2021/06/02 02:38:37;;;;;;;;;;;25.90;95.10;;;;;;5104971;28;19912;-46
2021/06/02 02:41:10;;;;;;;;;;;26.00;95.10;;;;;;5104452;28;19904;-51
2021/06/02 02:43:47;;;;;;;;;;;25.90;94.90;;;;;;5104816;28;19957;-49
2021/06/02 02:46:21;;;;;;;;;;;26.00;95.10;;;;;;5104275;28;19911;-46
2021/06/02 02:48:53;;;;;;;;;;;25.90;94.80;;;;;;5104643;28;19954;-45
2021/06/02 02:51:22;;;;;;;;;;;25.90;94.70;;;;;;5112306;28;19978;-47
2021/06/02 02:53:57;;;;;;;;;;;25.90;94.70;;;;;;5124639;28;19954;-47
2021/06/02 02:56:35;;;;;;;;;;;25.90;94.70;;;;;;5122515;28;19931;-42
2021/06/02 02:59:01;;;;;;;;;;;25.90;94.60;;;;;;5123372;28;19912;-51
2021/06/02 03:01:42;;;;;;;;;;;25.90;94.50;;;;;;5124044;28;19923;-49
2021/06/02 03:04:15;;;;;;;;;;;25.90;94.50;;;;;;5124786;28;19936;-50
2021/06/02 03:06:45;;;;;;;;;;;25.90;94.50;;;;;;5123602;28;19962;-49
2021/06/02 03:09:20;;;;;;;;;;;25.90;94.50;;;;;;5124242;28;19911;-49
2021/06/02 03:11:50;;;;;;;;;;;25.90;94.40;;;;;;5123190;28;20218;-46
2021/06/02 03:14:17;;;;;;;;;;;25.90;94.50;;;;;;5124278;28;19912;-46
2021/06/02 03:16:49;;;;;;;;;;;25.90;94.50;;;;;;5124101;28;19911;-43
2021/06/02 03:19:19;;;;;;;;;;;25.90;94.40;;;;;;5127146;28;19912;-42
2021/06/02 03:21:52;;;;;;;;;;;25.90;94.40;;;;;;5128400;28;19907;-48
2021/06/02 03:24:18;;;;;;;;;;;25.90;94.30;;;;;;5128866;28;19943;-45
2021/06/02 03:26:56;;;;;;;;;;;25.90;94.30;;;;;;5128120;28;19919;-45
2021/06/02 03:29:22;;;;;;;;;;;25.90;94.30;;;;;;5128605;28;19933;-40
2021/06/02 03:31:52;;;;;;;;;;;25.90;94.20;;;;;;5127776;28;19903;-41
2021/06/02 03:34:22;;;;;;;;;;;25.90;94.20;;;;;;5128383;28;19983;-42
2021/06/02 03:36:52;;;;;;;;;;;25.90;94.20;;;;;;5127746;28;19971;-49
2021/06/02 03:39:23;;;;;;;;;;;25.90;94.20;;;;;;5128402;28;19916;-41
2021/06/02 03:41:49;;;;;;;;;;;25.90;94.30;;;;;;5127408;28;19949;-49
2021/06/02 03:44:36;;;;;;;;;;;25.90;94.30;;;;;;5128375;28;19919;-43
2021/06/02 03:47:17;;;;;;;;;;;25.80;94.20;;;;;;5128087;28;19997;-46
2021/06/02 03:49:46;;;;;;;;;;;25.80;94.40;;;;;;5127990;28;19979;-46
2021/06/02 03:52:23;;;;;;;;;;;25.80;94.40;;;;;;5138155;27;19922;-45
2021/06/02 03:54:53;;;;;;;;;;;25.80;94.40;;;;;;5148535;27;19908;-46
2021/06/02 03:57:37;;;;;;;;;;;25.80;94.50;;;;;;5148693;27;19919;-42
2021/06/02 04:00:04;;;;;;;;;;;25.80;94.60;;;;;;5148296;27;20153;-46
2021/06/02 04:02:56;;;;;;;;;;;25.80;94.70;;;;;;5148371;27;20252;-56
2021/06/02 04:05:41;;;;;;;;;;;25.80;94.70;;;;;;5146452;27;19911;-51
2021/06/02 04:08:26;;;;;;;;;;;25.80;94.70;;;;;;5148428;27;20116;-45
2021/06/02 04:11:10;;;;;;;;;;;25.80;94.80;;;;;;5148156;27;19907;-46
2021/06/02 04:13:57;;;;;;;;;;;25.80;94.80;;;;;;5148601;27;19973;-43
2021/06/02 04:16:24;;;;;;;;;;;25.80;94.90;;;;;;5148137;27;19907;-53
2021/06/02 04:18:51;;;;;;;;;;;25.70;94.90;;;;;;5148519;27;19907;-44
2021/06/02 04:21:20;;;;;;;;;;;25.70;94.90;;;;;;5147905;27;19911;-45
2021/06/02 04:23:46;;;;;;;;;;;25.70;94.90;;;;;;5148320;27;19908;-48
2021/06/02 04:26:13;;;;;;;;;;;25.80;94.90;;;;;;5148045;27;19907;-50
2021/06/02 04:28:40;;;;;;;;;;;25.70;94.90;;;;;;5148379;27;19907;-46
2021/06/02 04:31:07;;;;;;;;;;;25.70;94.90;;;;;;5147392;27;19915;-43
2021/06/02 04:33:35;;;;;;;;;;;25.70;94.90;;;;;;5148366;27;20175;-47
2021/06/02 04:36:04;;;;;;;;;;;25.70;94.80;;;;;;5147791;27;20103;-43
2021/06/02 04:38:31;;;;;;;;;;;25.70;94.80;;;;;;5143787;27;20196;-43
2021/06/02 04:41:02;;;;;;;;;;;25.70;94.80;;;;;;5127199;28;20203;-46
2021/06/02 04:43:29;;;;;;;;;;;25.70;94.80;;;;;;5127159;28;19912;-46
2021/06/02 04:45:59;;;;;;;;;;;25.70;94.80;;;;;;5127296;28;19971;-50
2021/06/02 04:48:26;;;;;;;;;;;25.70;94.80;;;;;;5127444;28;19919;-48
2021/06/02 04:51:01;;;;;;;;;;;25.60;94.80;;;;;;5127019;28;19904;-48
2021/06/02 04:53:46;;;;;;;;;;;25.60;94.80;;;;;;5127005;28;20248;-45
2021/06/02 04:56:19;;;;;;;;;;;25.60;94.80;;;;;;5126765;28;19949;-46
2021/06/02 04:58:52;;;;;;;;;;;25.60;94.80;;;;;;5126735;28;19939;-48
2021/06/02 05:01:18;;;;;;;;;;;25.60;94.90;;;;;;5126611;28;19912;-47
2021/06/02 05:03:56;;;;;;;;;;;25.60;94.80;;;;;;5126963;28;19935;-45
2021/06/02 05:06:28;;;;;;;;;;;25.60;94.90;;;;;;5126641;28;19915;-45
2021/06/02 05:09:02;;;;;;;;;;;25.60;94.80;;;;;;5126996;28;19916;-43
2021/06/02 05:11:46;;;;;;;;;;;25.60;94.70;;;;;;5126481;28;20144;-48
2021/06/02 05:14:31;;;;;;;;;;;25.50;94.70;;;;;;5126988;28;19908;-43
2021/06/02 05:17:16;;;;;;;;;;;25.50;94.70;;;;;;5126535;28;19907;-48
2021/06/02 05:22:25;;;;;;;;;;;25.50;95.00;;;;;;5126177;28;20219;-52
2021/06/02 05:25:14;;;;;;;;;;;25.50;94.80;;;;;;5126320;28;19908;-46
2021/06/02 05:27:40;;;;;;;;;;;25.50;94.70;;;;;;5120532;28;19908;-50
2021/06/02 05:30:18;;;;;;;;;;;25.50;94.70;;;;;;5126451;28;19915;-44
2021/06/02 05:33:05;;;;;;;;;;;25.50;94.90;;;;;;5126321;28;19912;-50
2021/06/02 05:36:05;;;;;;;;;;;25.50;94.60;;;;;;5118805;28;19908;-51
2021/06/02 05:38:37;;;;;;;;;;;25.50;94.60;;;;;;5126282;28;19908;-51
2021/06/02 05:41:03;;;;;;;;;;;25.50;94.50;;;;;;5126024;28;19937;-48
2021/06/02 05:43:37;;;;;;;;;;;25.50;94.40;;;;;;5125162;28;19907;-44
2021/06/02 05:46:03;;;;;;;;;;;25.50;94.40;;;;;;5125944;28;19908;-51
2021/06/02 05:48:45;;;;;;;;;;;25.50;94.50;;;;;;5126215;28;19908;-49
2021/06/02 05:51:32;;;;;;;;;;;25.50;94.50;;;;;;5125852;28;20002;-47
2021/06/02 05:54:01;;;;;;;;;;;25.50;94.50;;;;;;5126101;28;20081;-49
2021/06/02 05:56:33;;;;;;;;;;;25.50;94.50;;;;;;5125602;28;19904;-49
2021/06/02 05:59:06;;;;;;;;;;;25.40;94.60;;;;;;5125609;28;19947;-43
2021/06/02 06:01:32;;;;;;;;;;;25.40;94.60;;;;;;5125705;28;19908;-43
2021/06/02 06:03:58;;;;;;;;;;;25.40;94.70;;;;;;5125897;28;19912;-49
2021/06/02 06:06:27;;;;;;;;;;;25.40;94.70;;;;;;5125413;28;19911;-46
2021/06/02 06:09:12;;;;;;;;;;;25.40;94.80;;;;;;5125970;28;19927;-47
2021/06/02 06:11:47;;;;;;;;;;;25.40;94.70;;;;;;5125408;28;19904;-46
2021/06/02 06:14:14;;;;;;;;;;;25.40;94.70;;;;;;5125892;28;19919;-46
2021/06/02 06:16:58;;;;;;;;;;;25.40;94.70;;;;;;5125235;28;20215;-45
2021/06/02 06:19:32;;;;;;;;;;;25.40;94.70;;;;;;5125224;28;20128;-44
2021/06/02 06:22:17;;;;;;;;;;;25.40;94.70;;;;;;5125349;28;19907;-43
2021/06/02 06:24:58;;;;;;;;;;;25.40;94.80;;;;;;5125358;28;19957;-50
2021/06/02 06:27:24;;;;;;;;;;;25.40;94.80;;;;;;5125223;28;19950;-43
2021/06/02 06:29:57;;;;;;;;;;;25.40;94.80;;;;;;5125091;28;19903;-47
2021/06/02 06:32:24;;;;;;;;;;;25.40;94.80;;;;;;5125158;28;19934;-44
2021/06/02 06:34:52;;;;;;;;;;;25.40;94.80;;;;;;5125152;28;19926;-44
2021/06/02 06:37:19;;;;;;;;;;;25.40;95.10;;;;;;5124846;28;19904;-43
2021/06/02 06:39:56;;;;;;;;;;;25.40;94.90;;;;;;5125085;28;19903;-45
2021/06/02 06:42:23;;;;;;;;;;;25.40;94.90;;;;;;5124777;28;19923;-47
2021/06/02 06:44:53;;;;;;;;;;;25.40;94.90;;;;;;5124833;28;19904;-44
2021/06/02 06:47:20;;;;;;;;;;;25.40;94.80;;;;;;5124978;28;20011;-43
2021/06/02 06:49:48;;;;;;;;;;;25.40;94.80;;;;;;5124682;28;20192;-45
2021/06/02 06:52:15;;;;;;;;;;;25.40;94.90;;;;;;5124758;28;19923;-42
2021/06/02 06:54:42;;;;;;;;;;;25.40;94.90;;;;;;5124552;28;19948;-43
2021/06/02 06:57:08;;;;;;;;;;;25.40;94.90;;;;;;5124674;28;19904;-49
2021/06/02 06:59:35;;;;;;;;;;;25.40;94.90;;;;;;5124940;28;20196;-44
2021/06/02 07:02:02;;;;;;;;;;;25.30;94.70;;;;;;5124566;28;19907;-44
2021/06/02 07:04:29;;;;;;;;;;;25.40;94.70;;;;;;5124666;28;19907;-43
2021/06/02 07:06:56;;;;;;;;;;;25.30;94.80;;;;;;5124693;28;19904;-46
2021/06/02 07:09:22;;;;;;;;;;;25.30;94.70;;;;;;5125295;28;19907;-43
2021/06/02 07:11:49;;;;;;;;;;;25.30;94.70;;;;;;5124566;28;19908;-44
2021/06/02 07:14:17;;;;;;;;;;;25.30;94.70;;;;;;5125218;28;19974;-43
2021/06/02 07:16:44;;;;;;;;;;;25.30;94.80;;;;;;5124563;28;19908;-43
2021/06/02 07:19:11;;;;;;;;;;;25.30;94.70;;;;;;5125014;28;19908;-49
2021/06/02 07:21:43;;;;;;;;;;;25.30;94.60;;;;;;5124536;28;19991;-44
2021/06/02 07:24:09;;;;;;;;;;;25.30;94.60;;;;;;5124970;28;19908;-44
2021/06/02 07:26:36;;;;;;;;;;;25.30;94.60;;;;;;5124484;28;19908;-44
2021/06/02 07:29:02;;;;;;;;;;;25.30;94.70;;;;;;5124902;28;19935;-46
2021/06/02 07:31:29;;;;;;;;;;;25.30;94.60;;;;;;5124738;28;19945;-50
2021/06/02 07:33:55;;;;;;;;;;;25.30;94.60;;;;;;5124705;28;20077;-49
2021/06/02 07:36:21;;;;;;;;;;;25.30;94.50;;;;;;5124496;28;19915;-49
2021/06/02 07:38:47;;;;;;;;;;;25.30;94.50;;;;;;5124545;28;19983;-45
2021/06/02 07:41:13;;;;;;;;;;;25.30;94.40;;;;;;5124101;28;19907;-49
2021/06/02 07:43:39;;;;;;;;;;;25.30;94.40;;;;;;5124874;28;20293;-47
2021/06/02 07:46:06;;;;;;;;;;;25.30;94.40;;;;;;5124242;28;20100;-50
2021/06/02 07:48:32;;;;;;;;;;;25.30;94.40;;;;;;5124632;28;19949;-45
2021/06/02 07:50:58;;;;;;;;;;;25.30;94.50;;;;;;5124166;28;19912;-45
2021/06/02 07:53:25;;;;;;;;;;;25.30;94.50;;;;;;5124403;28;19927;-46
2021/06/02 07:55:51;;;;;;;;;;;25.30;94.60;;;;;;5124146;28;19942;-44
2021/06/02 07:58:17;;;;;;;;;;;25.30;94.60;;;;;;5124638;28;19939;-45
2021/06/02 08:00:43;;;;;;;;;;;25.30;94.50;;;;;;5124403;28;19971;-48
2021/06/02 08:03:10;;;;;;;;;;;25.30;94.50;;;;;;5124377;28;19922;-49
2021/06/02 08:05:36;;;;;;;;;;;25.30;94.50;;;;;;5124978;28;19904;-43
2021/06/02 08:08:02;;;;;;;;;;;25.30;94.50;;;;;;5128176;28;19912;-47
2021/06/02 08:10:28;;;;;;;;;;;25.30;94.40;;;;;;5128046;28;20096;-48
2021/06/02 08:12:54;;;;;;;;;;;25.30;94.30;;;;;;5127682;28;19911;-45
2021/06/02 08:15:21;;;;;;;;;;;25.30;94.30;;;;;;5127642;28;20134;-45
2021/06/02 08:17:47;;;;;;;;;;;25.20;94.20;;;;;;5127878;28;19912;-48
2021/06/02 08:20:14;;;;;;;;;;;25.20;94.20;;;;;;5127425;28;20222;-45
2021/06/02 08:22:41;;;;;;;;;;;25.20;94.30;;;;;;5127712;28;20138;-46
2021/06/02 08:25:08;;;;;;;;;;;25.20;94.40;;;;;;5127395;28;19966;-44
2021/06/02 08:27:35;;;;;;;;;;;25.20;94.30;;;;;;5127605;28;19918;-47
2021/06/02 08:30:01;;;;;;;;;;;25.20;94.30;;;;;;5127331;28;19904;-50
2021/06/02 08:32:28;;;;;;;;;;;25.20;94.30;;;;;;5127461;28;19911;-49
2021/06/02 08:34:54;;;;;;;;;;;25.20;94.40;;;;;;5127428;28;20233;-49
2021/06/02 08:37:20;;;;;;;;;;;25.20;94.40;;;;;;5127171;28;19939;-52
2021/06/02 08:39:46;;;;;;;;;;;25.10;94.30;;;;;;5127344;28;19903;-52
2021/06/02 08:42:13;;;;;;;;;;;25.20;94.30;;;;;;5127058;28;19945;-50
2021/06/02 08:44:39;;;;;;;;;;;25.20;94.40;;;;;;5127211;28;19935;-50
2021/06/02 08:47:06;;;;;;;;;;;25.20;94.50;;;;;;5127099;28;20211;-49
2021/06/02 08:49:32;;;;;;;;;;;25.10;94.50;;;;;;5126980;28;20210;-45
2021/06/02 08:52:01;;;;;;;;;;;25.10;94.50;;;;;;5126677;28;20150;-45
2021/06/02 08:54:27;;;;;;;;;;;25.10;94.50;;;;;;5126842;28;19982;-44
2021/06/02 08:56:53;;;;;;;;;;;25.10;94.60;;;;;;5126923;28;20009;-46
2021/06/02 08:59:19;;;;;;;;;;;25.10;94.60;;;;;;5127222;28;19912;-44
2021/06/02 09:01:46;;;;;;;;;;;25.10;94.60;;;;;;5126759;28;19947;-45
2021/06/02 09:04:12;;;;;;;;;;;25.10;94.50;;;;;;5127208;28;19908;-44
2021/06/02 09:06:45;;;;;;;;;;;25.10;94.40;;;;;;5126499;28;19944;-48
2021/06/02 09:09:13;;;;;;;;;;;25.10;94.40;;;;;;5127201;28;19930;-44
2021/06/02 09:11:40;;;;;;;;;;;25.10;94.40;;;;;;5126643;28;19908;-50
2021/06/02 09:14:24;;;;;;;;;;;25.10;94.50;;;;;;5126867;28;20188;-46
2021/06/02 09:16:52;;;;;;;;;;;25.10;94.40;;;;;;5126363;28;19908;-48
2021/06/02 09:19:30;;;;;;;;;;;25.10;94.50;;;;;;5126299;28;19912;-48
2021/06/02 09:21:57;;;;;;;;;;;25.10;94.50;;;;;;5126299;28;19987;-46
2021/06/02 09:24:43;;;;;;;;;;;25.10;94.40;;;;;;5126790;28;20184;-51
2021/06/02 09:27:09;;;;;;;;;;;25.10;94.40;;;;;;5126128;28;19939;-46
2021/06/02 09:29:47;;;;;;;;;;;25.10;94.40;;;;;;5126245;28;19907;-45
2021/06/02 09:32:15;;;;;;;;;;;25.00;94.40;;;;;;5126338;28;19910;-43
2021/06/02 09:34:42;;;;;;;;;;;25.00;94.40;;;;;;5126119;28;19929;-45
2021/06/02 09:37:08;;;;;;;;;;;25.00;94.30;;;;;;5125827;28;19935;-48
2021/06/02 09:39:38;;;;;;;;;;;25.10;94.30;;;;;;5126073;28;20100;-44
2021/06/02 09:42:16;;;;;;;;;;;25.00;94.30;;;;;;5125723;28;20096;-46
2021/06/02 09:44:42;;;;;;;;;;;25.00;94.40;;;;;;5125943;28;19915;-52
2021/06/02 09:47:09;;;;;;;;;;;25.00;94.50;;;;;;5125862;28;19904;-52
2021/06/02 09:49:46;;;;;;;;;;;25.00;94.60;;;;;;5125894;28;19907;-48
2021/06/02 09:52:12;;;;;;;;;;;25.00;94.60;;;;;;5125675;28;19915;-47
2021/06/02 09:54:38;;;;;;;;;;;25.00;94.70;;;;;;5125769;28;19915;-49
2021/06/02 09:57:19;;;;;;;;;;;25.00;94.80;;;;;;5125538;28;19908;-46
2021/06/02 09:59:54;;;;;;;;;;;25.00;94.70;;;;;;5125920;28;19908;-47
2021/06/02 10:02:21;;;;;;;;;;;25.00;94.80;;;;;;5125313;28;19975;-47
2021/06/02 10:04:57;;;;;;;;;;;25.00;94.90;;;;;;5125571;28;19908;-47
2021/06/02 10:07:24;;;;;;;;;;;25.00;95.00;;;;;;5125629;28;19976;-45
2021/06/02 10:09:51;;;;;;;;;;;25.00;94.90;;;;;;5125431;28;19908;-45
2021/06/02 10:12:17;;;;;;;;;;;25.00;95.00;;;;;;5125444;28;20133;-47
2021/06/02 10:14:54;;;;;;;;;;;25.00;94.90;;;;;;5125491;28;20196;-44
2021/06/02 10:17:24;;;;;;;;;;;25.00;94.90;;;;;;5125261;28;19931;-45
2021/06/02 10:19:51;;;;;;;;;;;25.00;94.90;;;;;;5125283;28;19908;-45
2021/06/02 10:22:19;;;;;;;;;;;25.00;94.90;;;;;;5125010;28;19908;-46
2021/06/02 10:24:46;;;;;;;;;;;25.00;94.90;;;;;;5125265;28;19907;-51
2021/06/02 10:27:12;;;;;;;;;;;24.90;94.90;;;;;;5125205;28;19903;-46
2021/06/02 10:29:39;;;;;;;;;;;24.90;94.90;;;;;;5124523;28;19908;-46
2021/06/02 10:32:05;;;;;;;;;;;24.90;95.00;;;;;;5124952;28;19941;-48
2021/06/02 10:34:32;;;;;;;;;;;24.90;95.00;;;;;;5125128;28;19980;-44
2021/06/02 10:36:58;;;;;;;;;;;24.90;94.90;;;;;;5125037;28;20133;-47
2021/06/02 10:39:26;;;;;;;;;;;24.90;94.90;;;;;;5125217;28;19983;-52
2021/06/02 10:41:54;;;;;;;;;;;24.90;95.00;;;;;;5124979;28;19914;-51
2021/06/02 10:44:29;;;;;;;;;;;24.90;94.90;;;;;;5125649;28;19943;-50
2021/06/02 10:46:56;;;;;;;;;;;24.90;95.00;;;;;;5124880;28;19915;-50
2021/06/02 10:49:29;;;;;;;;;;;24.90;94.90;;;;;;5126034;28;20092;-46
2021/06/02 10:51:56;;;;;;;;;;;24.90;95.00;;;;;;5124939;28;19919;-51
2021/06/02 10:54:37;;;;;;;;;;;24.90;95.00;;;;;;5125547;28;20092;-46
2021/06/02 10:57:07;;;;;;;;;;;24.90;95.00;;;;;;5124720;28;19908;-45
2021/06/02 10:59:35;;;;;;;;;;;24.90;94.90;;;;;;5124826;28;19908;-44
2021/06/02 11:02:07;;;;;;;;;;;24.90;95.00;;;;;;5124589;28;19974;-47
2021/06/02 11:04:35;;;;;;;;;;;24.90;95.00;;;;;;5125662;28;19907;-49
2021/06/02 11:07:17;;;;;;;;;;;24.90;95.10;;;;;;5124793;28;19903;-46
2021/06/02 11:09:52;;;;;;;;;;;24.90;95.10;;;;;;5124691;28;19915;-50
2021/06/02 11:12:18;;;;;;;;;;;24.90;95.20;;;;;;5125054;28;19925;-54
2021/06/02 11:14:45;;;;;;;;;;;25.00;95.10;;;;;;5125199;28;20160;-46
2021/06/02 11:17:12;;;;;;;;;;;25.00;95.10;;;;;;5125076;28;19904;-49
2021/06/02 11:19:38;;;;;;;;;;;25.00;95.20;;;;;;5125069;28;19937;-54
2021/06/02 11:22:06;;;;;;;;;;;25.00;95.20;;;;;;5124795;28;20060;-50
2021/06/02 11:24:32;;;;;;;;;;;25.00;95.20;;;;;;5124541;28;19943;-50
2021/06/02 11:27:11;;;;;;;;;;;25.00;95.10;;;;;;5124585;28;20077;-51
2021/06/02 11:29:52;;;;;;;;;;;25.10;95.20;;;;;;5124632;28;19919;-53
2021/06/02 11:32:28;;;;;;;;;;;25.10;95.10;;;;;;5124599;28;20184;-54
2021/06/02 11:34:55;;;;;;;;;;;25.10;95.00;;;;;;5124623;28;20141;-51
2021/06/02 11:37:24;;;;;;;;;;;25.10;95.10;;;;;;5124682;28;19908;-47
2021/06/02 11:39:52;;;;;;;;;;;25.20;95.10;;;;;;5124587;28;19971;-45
2021/06/02 11:42:42;;;;;;;;;;;25.20;95.20;;;;;;5128243;28;19924;-46
2021/06/02 11:45:10;;;;;;;;;;;25.20;95.20;;;;;;5128416;28;19914;-47
2021/06/02 11:47:36;;;;;;;;;;;25.20;95.20;;;;;;5128558;28;19915;-49
2021/06/02 11:50:04;;;;;;;;;;;25.20;95.10;;;;;;5128274;28;19907;-51
2021/06/02 11:52:30;;;;;;;;;;;25.20;95.10;;;;;;5128159;28;19920;-49
2021/06/02 11:54:57;;;;;;;;;;;25.20;95.10;;;;;;5128140;28;20005;-54
2021/06/02 11:57:27;;;;;;;;;;;25.30;95.10;;;;;;5128303;28;19919;-47
2021/06/02 11:59:54;;;;;;;;;;;25.30;95.10;;;;;;5128046;28;19908;-48
2021/06/02 12:02:21;;;;;;;;;;;25.30;95.10;;;;;;5109220;28;19922;-46
2021/06/02 12:04:47;;;;;;;;;;;25.30;95.20;;;;;;5106703;28;19904;-48
2021/06/02 12:07:25;;;;;;;;;;;25.30;95.40;;;;;;5107170;28;19904;-45
2021/06/02 12:09:53;;;;;;;;;;;25.30;95.40;;;;;;5107595;28;19904;-47
2021/06/02 12:12:19;;;;;;;;;;;25.40;95.40;;;;;;5106954;28;19959;-47
2021/06/02 12:15:13;;;;;;;;;;;25.40;95.60;;;;;;5107443;28;19908;-53
2021/06/02 12:17:39;;;;;;;;;;;25.40;95.60;;;;;;5104577;28;19916;-54
2021/06/02 12:20:07;;;;;;;;;;;25.40;95.60;;;;;;5107689;28;19904;-54
2021/06/02 12:22:33;;;;;;;;;;;25.50;95.40;;;;;;5107302;28;20238;-52
2021/06/02 12:25:02;;;;;;;;;;;25.50;95.30;;;;;;5106941;28;19911;-54
2021/06/02 12:27:28;;;;;;;;;;;25.50;95.30;;;;;;5107282;28;19913;-43
2021/06/02 12:30:11;;;;;;;;;;;25.50;95.30;;;;;;5107130;28;19926;-42
2021/06/02 12:32:43;;;;;;;;;;;25.50;95.20;;;;;;5106443;28;19912;-47
2021/06/02 12:35:33;;;;;;;;;;;25.60;95.10;;;;;;5119716;28;19953;-47
2021/06/02 12:38:03;;;;;;;;;;;25.60;95.20;;;;;;5110554;28;19947;-45
2021/06/02 12:40:30;;;;;;;;;;;25.60;95.10;;;;;;5106922;28;19904;-48
2021/06/02 12:42:56;;;;;;;;;;;25.60;95.00;;;;;;5106628;28;20024;-57
2021/06/02 12:45:27;;;;;;;;;;;25.60;94.90;;;;;;5088665;28;20176;-56
2021/06/02 12:47:53;;;;;;;;;;;25.60;94.90;;;;;;5106713;28;19908;-56
2021/06/02 12:50:37;;;;;;;;;;;25.70;94.80;;;;;;5106696;28;20206;-44
2021/06/02 12:53:05;;;;;;;;;;;25.70;94.80;;;;;;5120493;28;19920;-58
2021/06/02 12:55:39;;;;;;;;;;;25.70;94.80;;;;;;5127088;28;20094;-44
2021/06/02 12:58:06;;;;;;;;;;;25.80;94.90;;;;;;5126982;28;20115;-53
2021/06/02 13:00:33;;;;;;;;;;;25.80;94.80;;;;;;5126969;28;19904;-47
2021/06/02 13:02:59;;;;;;;;;;;25.80;94.80;;;;;;5126710;28;19915;-44
2021/06/02 13:05:27;;;;;;;;;;;25.80;95.00;;;;;;5127135;28;19911;-44
2021/06/02 13:08:02;;;;;;;;;;;25.90;94.90;;;;;;5126765;28;19912;-46
2021/06/02 13:10:32;;;;;;;;;;;25.90;94.90;;;;;;5126763;28;19945;-45
2021/06/02 13:12:59;;;;;;;;;;;25.90;94.90;;;;;;5126335;27;19911;-57
2021/06/02 13:15:27;;;;;;;;;;;25.90;94.90;;;;;;5126615;28;19903;-44
2021/06/02 13:17:54;;;;;;;;;;;26.00;94.80;;;;;;5126675;28;19912;-54
2021/06/02 13:20:33;;;;;;;;;;;26.00;94.60;;;;;;5126440;28;19904;-48
2021/06/02 13:23:20;;;;;;;;;;;26.00;94.60;;;;;;5126562;28;19961;-57
2021/06/02 13:26:09;;;;;;;;;;;26.00;94.60;;;;;;5125895;28;19929;-42
2021/06/02 13:28:47;;;;;;;;;;;26.00;94.60;;;;;;5126540;28;19912;-44
2021/06/02 13:31:14;;;;;;;;;;;26.10;94.50;;;;;;5126548;28;20178;-51
2021/06/02 13:33:41;;;;;;;;;;;26.10;94.40;;;;;;5126677;28;20160;-47
2021/06/02 13:36:11;;;;;;;;;;;26.10;94.40;;;;;;5125857;28;19965;-56
2021/06/02 13:38:38;;;;;;;;;;;26.10;94.40;;;;;;5126346;28;20188;-41
2021/06/02 13:41:05;;;;;;;;;;;26.20;94.30;;;;;;5125808;28;19904;-46
2021/06/02 13:43:44;;;;;;;;;;;26.30;94.30;;;;;;5126163;28;19938;-51
2021/06/02 13:46:10;;;;;;;;;;;26.30;94.10;;;;;;5124446;28;19903;-46
2021/06/02 13:48:48;;;;;;;;;;;26.40;93.80;;;;;;5125870;28;20091;-53
2021/06/02 13:51:15;;;;;;;;;;;26.50;93.60;;;;;;5125717;28;19908;-50
2021/06/02 13:53:57;;;;;;;;;;;26.60;93.30;;;;;;5125986;28;19965;-54
2021/06/02 13:56:23;;;;;;;;;;;26.60;93.50;;;;;;5125968;28;19918;-50
2021/06/02 13:59:08;;;;;;;;;;;26.70;93.10;;;;;;5142180;27;19952;-46
2021/06/02 14:01:35;;;;;;;;;;;26.70;93.10;;;;;;5145937;27;20004;-41
2021/06/02 14:04:02;;;;;;;;;;;26.70;92.30;;;;;;5145834;27;19911;-50
2021/06/02 14:06:28;;;;;;;;;;;26.80;92.40;;;;;;5146178;27;19911;-43
2021/06/02 14:08:54;;;;;;;;;;;26.80;92.90;;;;;;5146440;27;19912;-49
2021/06/02 14:11:24;;;;;;;;;;;26.90;92.70;;;;;;5146308;27;19943;-44
2021/06/02 14:13:50;;;;;;;;;;;26.90;92.90;;;;;;5146537;27;19964;-40
2021/06/02 14:16:19;;;;;;;;;;;26.90;92.40;;;;;;5132162;27;19914;-41
2021/06/02 14:18:46;;;;;;;;;;;26.90;92.60;;;;;;5140956;27;19912;-46
2021/06/02 14:21:12;;;;;;;;;;;26.90;92.80;;;;;;5145555;27;19904;-45
2021/06/02 14:23:39;;;;;;;;;;;26.90;92.80;;;;;;5146159;27;19934;-40
2021/06/02 14:26:05;;;;;;;;;;;27.00;92.50;;;;;;5145141;27;19911;-45
2021/06/02 14:28:31;;;;;;;;;;;27.00;92.50;;;;;;5124395;28;19912;-45
2021/06/02 14:30:58;;;;;;;;;;;27.00;92.50;;;;;;5123408;28;19919;-43
2021/06/02 14:33:24;;;;;;;;;;;27.00;91.90;;;;;;5125367;27;19919;-40
2021/06/02 14:35:50;;;;;;;;;;;27.10;92.10;;;;;;5121246;28;19908;-47
2021/06/02 14:38:16;;;;;;;;;;;27.00;92.10;;;;;;5123473;27;19919;-40
2021/06/02 14:40:42;;;;;;;;;;;27.00;92.20;;;;;;5123924;28;19949;-42